createdAt,value
2018-06-02T00:01:12.367Z,61.80
2018-06-02T00:03:15.559Z,61.80
2018-06-02T00:05:18.805Z,61.70
2018-06-02T00:07:22.676Z,61.60
2018-06-02T00:09:26.599Z,62.10
2018-06-02T00:11:30.554Z,62.20
2018-06-02T00:13:33.719Z,62.10
2018-06-02T00:15:37.694Z,62.60
2018-06-02T00:17:40.867Z,61.60
2018-06-02T00:19:44.789Z,61.70
2018-06-02T00:21:47.968Z,61.50
2018-06-02T00:23:51.153Z,61.40
2018-06-02T00:25:54.344Z,61.70
2018-06-02T00:27:57.848Z,62.10
2018-06-02T00:30:01.859Z,62.10
2018-06-02T00:32:05.040Z,62.00
2018-06-02T00:34:08.200Z,62.10
2018-06-02T00:36:11.376Z,62.10
2018-06-02T00:38:14.558Z,62.00
2018-06-02T00:40:18.823Z,62.50
2018-06-02T00:42:22.025Z,62.50
2018-06-02T00:44:25.183Z,61.60
2018-06-02T00:46:28.351Z,62.00
2018-06-02T00:48:31.515Z,62.00
2018-06-02T00:50:34.667Z,62.30
2018-06-02T00:52:38.064Z,62.80
2018-06-02T00:54:42.037Z,62.70
2018-06-02T00:56:45.227Z,62.70
2018-06-02T00:58:49.155Z,63.00
2018-06-02T01:00:52.312Z,63.00
2018-06-02T01:02:56.534Z,63.10
2018-06-02T01:05:00.969Z,62.90
2018-06-02T01:07:05.366Z,62.70
2018-06-02T01:09:10.179Z,62.70
2018-06-02T01:11:14.863Z,62.70
2018-06-02T01:13:19.949Z,64.30
2018-06-02T01:15:23.256Z,63.50
2018-06-02T01:17:27.244Z,63.40
2018-06-02T01:19:31.579Z,63.10
2018-06-02T01:21:34.927Z,62.80
2018-06-02T01:23:39.429Z,62.80
2018-06-02T01:25:42.726Z,62.80
2018-06-02T01:27:46.718Z,63.10
2018-06-02T01:29:49.888Z,63.10
2018-06-02T01:31:53.080Z,63.40
2018-06-02T01:33:57.832Z,63.50
2018-06-02T01:36:01.095Z,63.50
2018-06-02T01:38:05.270Z,63.10
2018-06-02T01:40:09.299Z,62.90
2018-06-02T01:42:13.405Z,62.80
2018-06-02T01:44:16.712Z,63.30
2018-06-02T01:46:20.870Z,63.40
2018-06-02T01:48:24.174Z,63.50
2018-06-02T01:50:28.105Z,63.80
2018-06-02T01:52:32.997Z,63.80
2018-06-02T01:54:37.084Z,63.70
2018-06-02T01:56:41.939Z,63.40
2018-06-02T01:58:45.245Z,63.60
2018-06-02T02:00:49.168Z,63.90
2018-06-02T02:02:53.938Z,63.80
2018-06-02T02:04:57.616Z,63.70
2018-06-02T02:07:00.974Z,63.70
2018-06-02T02:09:04.631Z,63.70
2018-06-02T02:11:08.523Z,63.90
2018-06-02T02:13:12.004Z,64.10
2018-06-02T02:15:15.745Z,64.10
2018-06-02T02:17:20.016Z,63.70
2018-06-02T02:19:24.091Z,64.20
2018-06-02T02:21:28.054Z,64.00
2018-06-02T02:23:31.232Z,64.00
2018-06-02T02:25:34.398Z,63.70
2018-06-02T02:27:37.611Z,63.70
2018-06-02T02:29:40.782Z,63.80
2018-06-02T02:31:43.948Z,64.00
2018-06-02T02:33:47.912Z,63.80
2018-06-02T02:35:51.076Z,63.70
2018-06-02T02:37:55.021Z,63.60
2018-06-02T02:40:00.076Z,64.40
2018-06-02T02:42:03.261Z,64.30
2018-06-02T02:44:07.229Z,64.20
2018-06-02T02:46:10.391Z,64.20
2018-06-02T02:48:13.585Z,64.10
2018-06-02T02:50:16.769Z,64.20
2018-06-02T02:52:19.967Z,64.40
2018-06-02T02:54:23.151Z,64.40
2018-06-02T02:56:26.339Z,64.30
2018-06-02T02:58:29.549Z,64.60
2018-06-02T03:00:32.743Z,64.40
2018-06-02T03:02:35.927Z,64.30
2018-06-02T03:04:40.819Z,64.60
2018-06-02T03:06:45.134Z,64.30
2018-06-02T03:08:48.353Z,64.30
2018-06-02T03:10:51.511Z,64.10
2018-06-02T03:12:54.708Z,64.40
2018-06-02T03:14:57.893Z,64.30
2018-06-02T03:17:01.074Z,64.70
2018-06-02T03:19:04.263Z,64.80
2018-06-02T03:21:07.427Z,64.60
2018-06-02T03:23:11.369Z,64.20
2018-06-02T03:25:14.575Z,64.20
2018-06-02T03:27:17.736Z,63.90
2018-06-02T03:29:20.924Z,63.70
2018-06-02T03:31:24.079Z,64.00
2018-06-02T03:33:28.036Z,64.50
2018-06-02T03:35:31.205Z,64.40
2018-06-02T03:37:34.386Z,65.40
2018-06-02T03:39:37.624Z,64.40
2018-06-02T03:41:41.545Z,64.60
2018-06-02T03:43:45.503Z,64.30
2018-06-02T03:45:48.655Z,64.10
2018-06-02T03:47:51.895Z,63.90
2018-06-02T03:49:55.111Z,64.30
2018-06-02T03:51:59.054Z,63.90
2018-06-02T03:54:02.251Z,64.60
2018-06-02T03:56:06.176Z,63.50
2018-06-02T03:58:09.361Z,63.50
2018-06-02T04:00:12.542Z,63.60
2018-06-02T04:02:15.696Z,65.00
2018-06-02T04:04:19.693Z,64.40
2018-06-02T04:06:22.959Z,64.20
2018-06-02T04:08:26.141Z,63.90
2018-06-02T04:10:30.901Z,63.50
2018-06-02T04:12:34.616Z,63.50
2018-06-02T04:14:38.001Z,63.50
2018-06-02T04:16:41.967Z,63.50
2018-06-02T04:18:45.371Z,63.50
2018-06-02T04:20:48.528Z,63.40
2018-06-02T04:22:51.718Z,63.20
2018-06-02T04:24:54.893Z,63.10
2018-06-02T04:26:58.060Z,63.20
2018-06-02T04:29:02.079Z,63.20
2018-06-02T04:31:05.234Z,63.20
2018-06-02T04:33:09.196Z,63.30
2018-06-02T04:35:12.399Z,63.30
2018-06-02T04:37:15.956Z,63.20
2018-06-02T04:39:19.150Z,63.50
2018-06-02T04:41:22.328Z,63.50
2018-06-02T04:43:25.515Z,63.40
2018-06-02T04:45:28.691Z,63.10
2018-06-02T04:47:31.846Z,63.20
2018-06-02T04:49:35.062Z,63.00
2018-06-02T04:51:38.242Z,63.20
2018-06-02T04:53:41.677Z,63.30
2018-06-02T04:55:44.862Z,63.40
2018-06-02T04:57:48.795Z,63.90
2018-06-02T04:59:52.045Z,63.90
2018-06-02T05:01:55.228Z,63.70
2018-06-02T05:03:58.403Z,63.50
2018-06-02T05:06:02.700Z,64.20
2018-06-02T05:08:05.881Z,64.10
2018-06-02T05:10:09.130Z,64.20
2018-06-02T05:12:12.324Z,64.10
2018-06-02T05:14:15.522Z,64.50
2018-06-02T05:16:18.694Z,64.80
2018-06-02T05:18:22.075Z,65.20
2018-06-02T05:20:25.262Z,65.50
2018-06-02T05:22:28.435Z,65.60
2018-06-02T05:24:31.630Z,65.60
2018-06-02T05:26:35.601Z,65.10
2018-06-02T05:28:38.765Z,65.00
2018-06-02T05:30:42.839Z,65.00
2018-06-02T05:32:46.765Z,65.50
2018-06-02T05:34:49.948Z,65.50
2018-06-02T05:36:53.107Z,65.70
2018-06-02T05:38:56.293Z,66.10
2018-06-02T05:40:59.487Z,65.90
2018-06-02T05:43:02.651Z,66.00
2018-06-02T05:45:05.848Z,65.70
2018-06-02T05:47:09.019Z,65.40
2018-06-02T05:49:12.178Z,65.70
2018-06-02T05:51:16.132Z,65.20
2018-06-02T05:53:19.295Z,65.10
2018-06-02T05:55:22.799Z,64.80
2018-06-02T05:57:26.123Z,64.80
2018-06-02T05:59:29.291Z,64.60
2018-06-02T06:01:32.479Z,64.50
2018-06-02T06:03:35.650Z,64.50
2018-06-02T06:05:38.847Z,64.50
2018-06-02T06:07:42.942Z,64.90
2018-06-02T06:09:46.094Z,65.10
2018-06-02T06:11:49.290Z,64.40
2018-06-02T06:13:52.515Z,64.50
2018-06-02T06:15:55.673Z,64.40
2018-06-02T06:17:58.860Z,64.10
2018-06-02T06:20:03.147Z,63.90
2018-06-02T06:22:06.348Z,63.70
2018-06-02T06:24:09.508Z,63.70
2018-06-02T06:26:13.466Z,64.20
2018-06-02T06:28:16.619Z,64.20
2018-06-02T06:30:19.879Z,64.40
2018-06-02T06:32:23.285Z,64.60
2018-06-02T06:34:26.451Z,64.10
2018-06-02T06:36:29.640Z,64.00
2018-06-02T06:38:32.801Z,65.10
2018-06-02T06:40:35.988Z,64.50
2018-06-02T06:42:39.915Z,64.20
2018-06-02T06:44:44.141Z,65.20
2018-06-02T06:46:48.096Z,64.30
2018-06-02T06:48:51.248Z,64.20
2018-06-02T06:50:54.442Z,64.30
2018-06-02T06:52:57.590Z,64.10
2018-06-02T06:55:00.790Z,64.00
2018-06-02T06:57:03.989Z,64.10
2018-06-02T06:59:07.172Z,64.20
2018-06-02T07:01:10.375Z,63.80
2018-06-02T07:03:13.540Z,63.80
2018-06-02T07:05:17.475Z,63.90
2018-06-02T07:07:21.436Z,64.30
2018-06-02T07:09:24.649Z,64.30
2018-06-02T07:11:27.833Z,64.50
2018-06-02T07:13:31.030Z,64.50
2018-06-02T07:15:34.993Z,64.20
2018-06-02T07:17:38.183Z,64.10
2018-06-02T07:19:41.396Z,64.40
2018-06-02T07:21:44.631Z,64.50
2018-06-02T07:23:47.748Z,64.30
2018-06-02T07:25:50.902Z,64.00
2018-06-02T07:27:54.076Z,64.00
2018-06-02T07:29:57.243Z,64.00
2018-06-02T07:32:00.411Z,63.60
2018-06-02T07:34:04.070Z,63.40
2018-06-02T07:36:07.290Z,63.40
2018-06-02T07:38:10.426Z,63.20
2018-06-02T07:40:13.586Z,63.30
2018-06-02T07:42:16.768Z,63.10
2018-06-02T07:44:20.730Z,63.10
2018-06-02T07:46:24.260Z,63.10
2018-06-02T07:48:27.435Z,63.10
2018-06-02T07:50:30.615Z,63.10
2018-06-02T07:52:34.588Z,62.90
2018-06-02T07:54:37.767Z,62.90
2018-06-02T07:56:41.719Z,63.30
2018-06-02T07:58:44.875Z,63.30
2018-06-02T08:00:48.064Z,63.40
2018-06-02T08:02:51.266Z,63.40
2018-06-02T08:04:54.530Z,63.60
2018-06-02T08:06:57.749Z,63.30
2018-06-02T08:09:00.970Z,63.40
2018-06-02T08:11:06.202Z,64.50
2018-06-02T08:13:10.420Z,63.60
2018-06-02T08:15:15.482Z,64.40
2018-06-02T08:17:20.150Z,63.30
2018-06-02T08:19:24.654Z,63.30
2018-06-02T08:21:28.876Z,63.40
2018-06-02T08:23:32.313Z,63.30
2018-06-02T08:25:38.133Z,63.20
2018-06-02T08:27:41.609Z,63.20
2018-06-02T08:29:45.832Z,63.30
2018-06-02T08:31:49.904Z,63.10
2018-06-02T08:33:53.079Z,63.00
2018-06-02T08:35:56.312Z,63.10
2018-06-02T08:37:59.805Z,63.50
2018-06-02T08:40:03.967Z,63.70
2018-06-02T08:42:07.275Z,63.70
2018-06-02T08:44:10.443Z,63.40
2018-06-02T08:46:13.707Z,63.20
2018-06-02T08:48:16.934Z,63.00
2018-06-02T08:50:20.118Z,63.00
2018-06-02T08:52:25.230Z,62.80
2018-06-02T08:54:28.583Z,62.70
2018-06-02T08:56:31.955Z,62.70
2018-06-02T08:58:35.230Z,62.50
2018-06-02T09:00:38.525Z,62.60
2018-06-02T09:02:41.872Z,63.70
2018-06-02T09:04:45.794Z,63.10
2018-06-02T09:06:49.155Z,63.00
2018-06-02T09:08:52.369Z,63.30
2018-06-02T09:10:56.352Z,63.50
2018-06-02T09:12:59.646Z,63.40
2018-06-02T09:15:03.551Z,63.20
2018-06-02T09:17:06.927Z,63.90
2018-06-02T09:19:10.980Z,63.00
2018-06-02T09:21:14.836Z,62.90
2018-06-02T09:23:18.605Z,63.50
2018-06-02T09:25:23.523Z,62.50
2018-06-02T09:27:28.268Z,62.60
2018-06-02T09:29:32.972Z,62.40
2018-06-02T09:31:36.209Z,62.30
2018-06-02T09:33:39.391Z,62.50
2018-06-02T09:35:42.559Z,62.60
2018-06-02T09:37:47.076Z,62.80
2018-06-02T09:39:50.351Z,63.00
2018-06-02T09:41:54.109Z,63.50
2018-06-02T09:43:58.188Z,64.00
2018-06-02T09:46:02.867Z,63.80
2018-06-02T09:48:08.247Z,63.80
2018-06-02T09:50:12.196Z,63.70
2018-06-02T09:52:16.513Z,63.60
2018-06-02T09:54:20.641Z,63.40
2018-06-02T09:56:24.710Z,63.20
2018-06-02T09:58:28.147Z,63.60
2018-06-02T10:00:32.122Z,63.50
2018-06-02T10:02:35.409Z,63.40
2018-06-02T10:04:39.638Z,63.40
2018-06-02T10:06:43.628Z,63.10
2018-06-02T10:08:48.107Z,62.90
2018-06-02T10:10:52.531Z,63.60
2018-06-02T10:12:56.863Z,62.80
2018-06-02T10:15:00.089Z,62.70
2018-06-02T10:17:04.368Z,62.30
2018-06-02T10:19:08.758Z,62.30
2018-06-02T10:21:14.038Z,62.40
2018-06-02T10:23:17.362Z,62.50
2018-06-02T10:25:20.637Z,62.50
2018-06-02T10:27:24.730Z,63.20
2018-06-02T10:29:27.968Z,63.10
2018-06-02T10:31:31.896Z,62.70
2018-06-02T10:33:35.852Z,62.80
2018-06-02T10:35:39.097Z,62.80
2018-06-02T10:37:42.247Z,62.80
2018-06-02T10:39:47.497Z,62.90
2018-06-02T10:41:51.428Z,62.80
2018-06-02T10:43:55.347Z,62.80
2018-06-02T10:45:59.308Z,62.60
2018-06-02T10:48:02.474Z,62.50
2018-06-02T10:50:08.418Z,62.90
2018-06-02T10:52:11.570Z,62.90
2018-06-02T10:54:14.753Z,63.30
2018-06-02T10:56:17.907Z,63.10
2018-06-02T10:58:21.367Z,63.30
2018-06-02T11:00:24.551Z,62.80
2018-06-02T11:02:27.726Z,63.10
2018-06-02T11:04:30.927Z,62.80
2018-06-02T11:06:34.080Z,63.90
2018-06-02T11:08:38.732Z,63.10
2018-06-02T11:10:42.010Z,63.20
2018-06-02T11:12:45.167Z,64.00
2018-06-02T11:14:49.385Z,63.00
2018-06-02T11:16:52.756Z,63.20
2018-06-02T11:18:55.939Z,62.90
2018-06-02T11:20:59.867Z,62.10
2018-06-02T11:23:03.802Z,61.80
2018-06-02T11:25:07.870Z,61.90
2018-06-02T11:27:11.054Z,61.70
2018-06-02T11:29:14.240Z,62.00
2018-06-02T11:31:18.187Z,61.90
2018-06-02T11:33:21.335Z,61.80
2018-06-02T11:35:24.536Z,61.80
2018-06-02T11:37:27.930Z,61.90
2018-06-02T11:39:31.115Z,61.90
2018-06-02T11:41:34.372Z,61.70
2018-06-02T11:43:37.529Z,61.40
2018-06-02T11:45:40.720Z,61.00
2018-06-02T11:47:44.656Z,60.60
2018-06-02T11:49:48.124Z,60.60
2018-06-02T11:51:51.284Z,61.50
2018-06-02T11:53:55.235Z,61.00
2018-06-02T11:55:58.403Z,60.90
2018-06-02T11:58:02.384Z,60.60
2018-06-02T12:00:05.768Z,60.50
2018-06-02T12:02:08.910Z,60.70
2018-06-02T12:04:12.095Z,60.30
2018-06-02T12:06:15.246Z,59.80
2018-06-02T12:08:19.923Z,59.40
2018-06-02T12:10:23.883Z,59.50
2018-06-02T12:12:28.910Z,59.50
2018-06-02T12:14:32.088Z,59.50
2018-06-02T12:16:36.043Z,59.40
2018-06-02T12:18:39.223Z,59.30
2018-06-02T12:20:42.408Z,59.10
2018-06-02T12:22:45.603Z,59.40
2018-06-02T12:24:48.810Z,59.50
2018-06-02T12:26:51.957Z,59.50
2018-06-02T12:28:55.116Z,59.40
2018-06-02T12:30:58.393Z,59.10
2018-06-02T12:33:02.353Z,59.10
2018-06-02T12:35:05.561Z,59.00
2018-06-02T12:37:08.719Z,58.90
2018-06-02T12:39:11.991Z,58.30
2018-06-02T12:41:15.184Z,58.30
2018-06-02T12:43:18.471Z,57.50
2018-06-02T12:45:21.671Z,57.70
2018-06-02T12:47:25.602Z,57.90
2018-06-02T12:49:29.542Z,57.80
2018-06-02T12:51:32.736Z,57.70
2018-06-02T12:53:36.686Z,57.60
2018-06-02T12:55:39.979Z,57.60
2018-06-02T12:57:43.244Z,57.70
2018-06-02T12:59:46.992Z,57.70
2018-06-02T13:01:50.437Z,58.20
2018-06-02T13:03:53.782Z,57.50
2018-06-02T13:05:56.983Z,57.00
2018-06-02T13:08:00.127Z,57.10
2018-06-02T13:10:03.318Z,56.80
2018-06-02T13:12:07.421Z,56.00
2018-06-02T13:14:10.598Z,55.80
2018-06-02T13:16:14.554Z,56.30
2018-06-02T13:18:17.721Z,56.30
2018-06-02T13:20:21.663Z,56.10
2018-06-02T13:22:24.818Z,56.10
2018-06-02T13:24:29.096Z,56.00
2018-06-02T13:26:32.295Z,56.10
2018-06-02T13:28:36.203Z,56.00
2018-06-02T13:30:39.661Z,55.80
2018-06-02T13:32:42.838Z,55.80
2018-06-02T13:34:45.987Z,54.80
2018-06-02T13:36:49.170Z,54.90
2018-06-02T13:38:53.108Z,55.30
2018-06-02T13:40:56.288Z,55.20
2018-06-02T13:42:59.508Z,55.90
2018-06-02T13:45:02.626Z,55.30
2018-06-02T13:47:05.810Z,55.50
2018-06-02T13:49:09.265Z,55.50
2018-06-02T13:51:12.451Z,55.40
2018-06-02T13:53:16.367Z,55.50
2018-06-02T13:55:20.284Z,55.20
2018-06-02T13:57:23.514Z,55.20
2018-06-02T13:59:27.433Z,55.20
2018-06-02T14:01:31.389Z,55.10
2018-06-02T14:03:34.544Z,55.00
2018-06-02T14:05:37.703Z,55.00
2018-06-02T14:07:40.898Z,55.00
2018-06-02T14:09:44.108Z,55.00
2018-06-02T14:11:47.292Z,55.00
2018-06-02T14:13:50.452Z,55.00
2018-06-02T14:15:53.626Z,55.20
2018-06-02T14:17:57.584Z,54.30
2018-06-02T14:20:00.737Z,54.20
2018-06-02T14:22:03.920Z,54.40
2018-06-02T14:24:08.272Z,54.70
2018-06-02T14:26:12.007Z,53.90
2018-06-02T14:28:15.201Z,54.10
2018-06-02T14:30:18.337Z,54.30
2018-06-02T14:32:22.298Z,54.50
2018-06-02T14:34:25.534Z,54.50
2018-06-02T14:36:28.694Z,54.60
2018-06-02T14:38:32.119Z,55.20
2018-06-02T14:40:35.274Z,54.70
2018-06-02T14:42:38.482Z,54.60
2018-06-02T14:44:41.643Z,54.60
2018-06-02T14:46:44.827Z,54.70
2018-06-02T14:48:48.754Z,54.80
2018-06-02T14:50:52.219Z,54.80
2018-06-02T14:52:55.411Z,54.60
2018-06-02T14:54:58.566Z,53.70
2018-06-02T14:57:02.523Z,53.70
2018-06-02T14:59:05.698Z,53.50
2018-06-02T15:01:08.989Z,53.80
2018-06-02T15:03:12.414Z,53.70
2018-06-02T15:05:15.582Z,53.50
2018-06-02T15:07:18.771Z,53.50
2018-06-02T15:09:21.915Z,53.40
2018-06-02T15:11:25.075Z,53.30
2018-06-02T15:13:29.091Z,52.00
2018-06-02T15:15:32.533Z,51.80
2018-06-02T15:17:35.711Z,52.40
2018-06-02T15:19:39.675Z,52.90
2018-06-02T15:21:42.854Z,52.90
2018-06-02T15:23:46.028Z,52.80
2018-06-02T15:25:49.996Z,52.40
2018-06-02T15:27:53.178Z,52.40
2018-06-02T15:29:56.367Z,52.40
2018-06-02T15:31:59.547Z,52.70
2018-06-02T15:34:04.089Z,52.90
2018-06-02T15:36:07.258Z,52.90
2018-06-02T15:38:10.426Z,53.00
2018-06-02T15:40:13.572Z,53.50
2018-06-02T15:42:16.757Z,53.00
2018-06-02T15:44:19.939Z,53.20
2018-06-02T15:46:23.091Z,52.40
2018-06-02T15:48:27.043Z,51.90
2018-06-02T15:50:30.219Z,51.90
2018-06-02T15:52:33.399Z,51.70
2018-06-02T15:54:37.342Z,51.50
2018-06-02T15:57:06.132Z,51.40
2018-06-02T15:59:09.337Z,51.30
2018-06-02T16:01:12.974Z,51.20
2018-06-02T16:03:16.159Z,51.50
2018-06-02T16:05:19.351Z,51.20
2018-06-02T16:07:23.307Z,51.10
2018-06-02T16:09:26.491Z,51.10
2018-06-02T16:11:30.431Z,51.30
2018-06-02T16:13:33.664Z,51.20
2018-06-02T16:15:36.828Z,51.40
2018-06-02T16:18:01.751Z,51.00
2018-06-02T16:20:05.719Z,51.00
2018-06-02T16:22:09.069Z,50.80
2018-06-02T16:24:13.160Z,51.20
2018-06-02T16:26:16.367Z,51.50
2018-06-02T16:28:19.570Z,51.20
2018-06-02T16:30:22.786Z,51.20
2018-06-02T16:32:26.757Z,51.60
2018-06-02T16:34:29.974Z,51.60
2018-06-02T16:36:33.246Z,51.40
2018-06-02T16:38:36.425Z,51.30
2018-06-02T16:40:39.651Z,51.20
2018-06-02T16:42:42.848Z,51.30
2018-06-02T16:44:46.044Z,51.60
2018-06-02T16:46:49.995Z,51.90
2018-06-02T16:48:53.546Z,51.90
2018-06-02T16:50:56.796Z,52.20
2018-06-02T16:53:00.735Z,51.90
2018-06-02T16:55:03.926Z,51.80
2018-06-02T16:57:07.118Z,51.80
2018-06-02T16:59:10.321Z,51.80
2018-06-02T17:01:13.511Z,51.90
2018-06-02T17:03:16.742Z,52.20
2018-06-02T17:05:19.926Z,52.30
2018-06-02T17:07:23.114Z,52.50
2018-06-02T17:09:26.355Z,52.70
2018-06-02T17:11:29.525Z,52.90
2018-06-02T17:13:33.705Z,53.00
2018-06-02T17:15:36.885Z,52.50
2018-06-02T17:17:40.040Z,53.10
2018-06-02T17:19:43.995Z,53.30
2018-06-02T17:21:47.189Z,53.30
2018-06-02T17:23:50.420Z,53.40
2018-06-02T17:25:53.790Z,53.50
2018-06-02T17:27:57.511Z,53.80
2018-06-02T17:30:01.181Z,54.00
2018-06-02T17:32:04.432Z,54.00
2018-06-02T17:34:07.650Z,54.10
2018-06-02T17:36:10.809Z,54.00
2018-06-02T17:38:14.005Z,54.00
2018-06-02T17:40:17.288Z,54.10
2018-06-02T17:42:21.218Z,54.00
2018-06-02T17:44:25.150Z,54.00
2018-06-02T17:46:29.117Z,54.00
2018-06-02T17:48:32.293Z,54.00
2018-06-02T17:50:35.964Z,54.30
2018-06-02T17:52:39.130Z,54.20
2018-06-02T17:54:42.331Z,54.10
2018-06-02T17:56:45.495Z,54.10
2018-06-02T17:58:48.698Z,54.30
2018-06-02T18:00:51.869Z,54.20
2018-06-02T18:02:55.029Z,54.20
2018-06-02T18:04:58.210Z,54.30
2018-06-02T18:07:01.393Z,54.40
2018-06-02T18:09:04.994Z,54.30
2018-06-02T18:11:08.229Z,54.30
2018-06-02T18:13:11.446Z,54.30
2018-06-02T18:15:15.327Z,54.40
2018-06-02T18:17:19.628Z,54.40
2018-06-02T18:19:22.880Z,54.40
2018-06-02T18:21:26.828Z,54.40
2018-06-02T18:23:30.022Z,54.30
2018-06-02T18:25:34.369Z,54.40
2018-06-02T18:27:37.620Z,54.40
2018-06-02T18:29:40.840Z,54.40
2018-06-02T18:31:43.999Z,54.50
2018-06-02T18:33:47.184Z,54.50
2018-06-02T18:35:51.288Z,54.60
2018-06-02T18:37:54.512Z,54.50
2018-06-02T18:39:57.720Z,54.60
2018-06-02T18:42:01.175Z,54.60
2018-06-02T18:44:04.805Z,54.60
2018-06-02T18:46:08.829Z,54.60
2018-06-02T18:48:12.055Z,54.60
2018-06-02T18:50:15.426Z,54.70
2018-06-02T18:52:19.402Z,54.70
2018-06-02T18:54:22.586Z,54.70
2018-06-02T18:56:25.852Z,54.70
2018-06-02T18:58:29.067Z,54.70
2018-06-02T19:00:33.072Z,54.70
2018-06-02T19:02:36.262Z,54.70
2018-06-02T19:04:39.480Z,54.60
2018-06-02T19:06:43.442Z,54.60
2018-06-02T19:08:47.371Z,54.70
2018-06-02T19:10:51.320Z,54.60
2018-06-02T19:12:55.937Z,54.60
2018-06-02T19:14:59.916Z,54.70
2018-06-02T19:17:03.947Z,54.70
2018-06-02T19:19:07.164Z,54.60
2018-06-02T19:21:10.477Z,54.60
2018-06-02T19:23:14.892Z,54.60
2018-06-02T19:25:18.089Z,54.60
2018-06-02T19:27:22.069Z,54.70
2018-06-02T19:29:25.282Z,54.60
2018-06-02T19:31:28.469Z,55.30
2018-06-02T19:33:31.783Z,54.60
2018-06-02T19:35:35.804Z,54.80
2018-06-02T19:37:38.976Z,54.70
2018-06-02T19:39:42.206Z,54.70
2018-06-02T19:41:45.467Z,54.70
2018-06-02T19:43:49.517Z,54.80
2018-06-02T19:45:53.508Z,54.80
2018-06-02T19:47:56.714Z,54.80
2018-06-02T19:49:59.887Z,54.90
2018-06-02T19:52:03.098Z,54.90
2018-06-02T19:54:06.280Z,54.90
2018-06-02T19:56:09.511Z,54.90
2018-06-02T19:58:14.944Z,55.40
2018-06-02T20:00:18.234Z,54.80
2018-06-02T20:02:21.449Z,54.70
2018-06-02T20:04:25.517Z,54.90
2018-06-02T20:06:28.777Z,54.80
2018-06-02T20:08:32.243Z,54.70
2018-06-02T20:10:36.668Z,55.30
2018-06-02T20:12:40.057Z,54.80
2018-06-02T20:14:43.361Z,54.80
2018-06-02T20:16:46.730Z,54.80
2018-06-02T20:18:50.160Z,54.40
2018-06-02T20:20:53.949Z,54.90
2018-06-02T20:22:58.012Z,55.00
2018-06-02T20:25:01.991Z,54.90
2018-06-02T20:27:05.335Z,55.00
2018-06-02T20:29:08.557Z,55.10
2018-06-02T20:31:11.837Z,55.10
2018-06-02T20:33:16.954Z,55.20
2018-06-02T20:35:21.016Z,55.90
2018-06-02T20:37:24.317Z,55.10
2018-06-02T20:39:27.573Z,55.10
2018-06-02T20:41:30.776Z,55.20
2018-06-02T20:43:33.935Z,55.20
2018-06-02T20:45:37.874Z,55.40
2018-06-02T20:47:41.842Z,55.40
2018-06-02T20:49:45.047Z,55.30
2018-06-02T20:51:48.247Z,55.40
2018-06-02T20:53:51.426Z,55.50
2018-06-02T20:55:54.625Z,55.70
2018-06-02T20:57:58.722Z,55.80
2018-06-02T21:00:02.025Z,55.80
2018-06-02T21:02:05.347Z,55.80
2018-06-02T21:04:08.606Z,55.70
2018-06-02T21:06:11.905Z,55.40
2018-06-02T21:08:16.288Z,55.80
2018-06-02T21:10:19.469Z,55.90
2018-06-02T21:12:22.670Z,55.80
2018-06-02T21:14:25.838Z,56.50
2018-06-02T21:16:29.038Z,55.90
2018-06-02T21:18:32.215Z,55.90
2018-06-02T21:20:36.367Z,55.90
2018-06-02T21:22:39.620Z,55.70
2018-06-02T21:24:43.587Z,56.20
2018-06-02T21:26:46.796Z,56.20
2018-06-02T21:28:50.018Z,56.10
2018-06-02T21:30:53.188Z,56.20
2018-06-02T21:32:56.606Z,56.20
2018-06-02T21:34:59.800Z,56.20
2018-06-02T21:37:03.762Z,56.30
2018-06-02T21:39:07.816Z,56.30
2018-06-02T21:41:11.016Z,56.30
2018-06-02T21:43:15.004Z,56.30
2018-06-02T21:45:18.929Z,56.30
2018-06-02T21:47:22.889Z,56.30
2018-06-02T21:49:26.113Z,56.20
2018-06-02T21:51:29.261Z,56.20
2018-06-02T21:54:46.079Z,56.20
2018-06-02T21:56:50.587Z,56.40
2018-06-02T21:58:55.150Z,56.50
2018-06-02T22:00:59.722Z,56.50
2018-06-02T22:05:11.323Z,56.60
2018-06-02T22:07:15.915Z,56.60
2018-06-02T22:09:20.428Z,56.70
2018-06-02T22:11:25.012Z,56.60
2018-06-02T22:13:30.330Z,57.30
2018-06-02T22:15:35.004Z,56.60
2018-06-02T22:17:39.546Z,56.70
2018-06-02T22:19:44.723Z,56.60
2018-06-02T22:21:49.214Z,57.20
2018-06-02T22:25:58.135Z,56.70
2018-06-02T22:28:02.667Z,56.60
2018-06-02T22:30:07.143Z,56.60
2018-06-02T22:32:11.659Z,56.60
2018-06-02T22:34:16.127Z,56.60
2018-06-02T22:36:20.627Z,56.60
2018-06-02T22:38:25.191Z,56.60
2018-06-02T22:40:29.655Z,56.60
2018-06-02T22:42:34.178Z,56.70
2018-06-02T22:44:38.630Z,56.80
2018-06-02T22:46:43.119Z,56.70
2018-06-02T22:48:47.873Z,56.80
2018-06-02T22:50:53.082Z,56.70
2018-06-02T22:52:58.738Z,56.70
2018-06-02T22:55:03.284Z,56.80
2018-06-02T22:57:07.858Z,56.80
2018-06-02T22:59:12.570Z,56.70
2018-06-02T23:01:17.182Z,56.80
2018-06-02T23:03:21.840Z,56.70
2018-06-02T23:05:26.471Z,57.40
2018-06-02T23:07:31.552Z,56.80
2018-06-02T23:09:36.595Z,57.00
2018-06-02T23:11:41.866Z,56.90
2018-06-02T23:13:46.984Z,57.00
2018-06-02T23:15:51.437Z,57.00
2018-06-02T23:17:56.167Z,57.10
2018-06-02T23:20:00.615Z,57.10
2018-06-02T23:22:05.164Z,56.90
2018-06-02T23:24:09.655Z,57.00
2018-06-02T23:26:14.195Z,57.00
2018-06-02T23:28:18.899Z,57.00
2018-06-02T23:30:27.234Z,57.60
2018-06-02T23:32:31.676Z,56.90
2018-06-02T23:34:36.167Z,57.10
2018-06-02T23:36:40.628Z,57.20
2018-06-02T23:38:45.148Z,57.10
2018-06-02T23:40:49.594Z,57.10
2018-06-02T23:42:54.110Z,57.00
2018-06-02T23:44:59.177Z,57.10
2018-06-02T23:47:03.645Z,57.20
2018-06-02T23:49:08.761Z,57.10
2018-06-02T23:51:13.300Z,57.10
2018-06-02T23:55:23.051Z,57.20
2018-06-02T23:57:28.111Z,57.10
2018-06-02T23:59:32.594Z,57.20
